sensor_id;sensor_type;location;lat;lon;timestamp;temperature;humidity
28959;DHT22;16066;0.000;0.000;2024-03-08T06:00:17;19.00;38.70
28959;DHT22;16066;0.000;0.000;2024-03-08T06:02:44;19.10;38.70
28959;DHT22;16066;0.000;0.000;2024-03-08T06:05:10;19.00;38.60
28959;DHT22;16066;0.000;0.000;2024-03-08T06:07:37;19.00;38.70
28959;DHT22;16066;0.000;0.000;2024-03-08T06:10:09;19.00;38.80
28959;DHT22;16066;0.000;0.000;2024-03-08T06:12:36;19.00;38.80
28959;DHT22;16066;0.000;0.000;2024-03-08T06:15:06;19.00;38.80
28959;DHT22;16066;0.000;0.000;2024-03-08T06:17:32;19.00;38.70
28959;DHT22;16066;0.000;0.000;2024-03-08T06:19:57;19.00;38.80
28959;DHT22;16066;0.000;0.000;2024-03-08T06:22:23;19.00;38.80
28959;DHT22;16066;0.000;0.000;2024-03-08T06:24:48;19.00;38.80
28959;DHT22;16066;0.000;0.000;2024-03-08T06:27:14;19.00;38.80
28959;DHT22;16066;0.000;0.000;2024-03-08T06:29:39;19.00;38.70
28959;DHT22;16066;0.000;0.000;2024-03-08T06:32:05;19.00;38.80
28959;DHT22;16066;0.000;0.000;2024-03-08T06:34:33;19.00;38.70
28959;DHT22;16066;0.000;0.000;2024-03-08T06:37:00;19.00;38.70
28959;DHT22;16066;0.000;0.000;2024-03-08T06:39:27;19.00;38.70
28959;DHT22;16066;0.000;0.000;2024-03-08T06:41:54;19.00;38.80
28959;DHT22;16066;0.000;0.000;2024-03-08T06:44:19;19.00;38.80
28959;DHT22;16066;0.000;0.000;2024-03-08T06:46:47;19.10;38.90
28959;DHT22;16066;0.000;0.000;2024-03-08T06:49:13;19.10;39.00
28959;DHT22;16066;0.000;0.000;2024-03-08T06:51:39;19.10;39.00
28959;DHT22;16066;0.000;0.000;2024-03-08T06:54:06;19.20;39.20
28959;DHT22;16066;0.000;0.000;2024-03-08T06:56:34;19.20;39.10
28959;DHT22;16066;0.000;0.000;2024-03-08T06:59:00;19.20;39.00
28959;DHT22;16066;0.000;0.000;2024-03-08T07:01:28;19.30;39.10
28959;DHT22;16066;0.000;0.000;2024-03-08T07:03:57;19.40;39.20
28959;DHT22;16066;0.000;0.000;2024-03-08T07:06:23;19.40;39.20
28959;DHT22;16066;0.000;0.000;2024-03-08T07:08:48;19.50;39.10
28959;DHT22;16066;0.000;0.000;2024-03-08T07:11:14;19.60;39.30
28959;DHT22;16066;0.000;0.000;2024-03-08T07:13:46;19.70;39.50
28959;DHT22;16066;0.000;0.000;2024-03-08T07:16:12;19.80;39.90
28959;DHT22;16066;0.000;0.000;2024-03-08T07:18:38;19.90;39.60
28959;DHT22;16066;0.000;0.000;2024-03-08T07:21:09;20.00;39.50
28959;DHT22;16066;0.000;0.000;2024-03-08T07:23:34;20.10;39.70
28959;DHT22;16066;0.000;0.000;2024-03-08T07:26:16;20.20;39.40
28959;DHT22;16066;0.000;0.000;2024-03-08T07:28:41;20.30;39.50
28959;DHT22;16066;0.000;0.000;2024-03-08T07:31:07;20.40;39.40
28959;DHT22;16066;0.000;0.000;2024-03-08T07:33:42;20.50;39.30
28959;DHT22;16066;0.000;0.000;2024-03-08T07:36:07;20.50;39.20
28959;DHT22;16066;0.000;0.000;2024-03-08T07:38:33;20.60;40.20
28959;DHT22;16066;0.000;0.000;2024-03-08T07:41:00;20.70;39.70
28959;DHT22;16066;0.000;0.000;2024-03-08T07:43:26;20.80;39.50
28959;DHT22;16066;0.000;0.000;2024-03-08T07:45:52;20.80;39.70
28959;DHT22;16066;0.000;0.000;2024-03-08T07:48:20;20.80;39.00
28959;DHT22;16066;0.000;0.000;2024-03-08T07:50:46;20.90;39.20
28959;DHT22;16066;0.000;0.000;2024-03-08T07:53:12;20.90;39.10
28959;DHT22;16066;0.000;0.000;2024-03-08T07:55:37;21.00;39.00
28959;DHT22;16066;0.000;0.000;2024-03-08T07:58:05;21.00;39.00
28959;DHT22;16066;0.000;0.000;2024-03-08T08:00:31;21.00;39.10
28959;DHT22;16066;0.000;0.000;2024-03-08T08:02:57;21.10;38.30
28959;DHT22;16066;0.000;0.000;2024-03-08T08:05:22;21.10;37.50
28959;DHT22;16066;0.000;0.000;2024-03-08T08:07:48;21.10;37.10
28959;DHT22;16066;0.000;0.000;2024-03-08T08:10:15;21.10;36.80
28959;DHT22;16066;0.000;0.000;2024-03-08T08:12:47;21.10;36.70
28959;DHT22;16066;0.000;0.000;2024-03-08T08:15:13;21.10;35.90
28959;DHT22;16066;0.000;0.000;2024-03-08T08:17:46;21.10;35.60
28959;DHT22;16066;0.000;0.000;2024-03-08T08:20:15;21.00;35.40
28959;DHT22;16066;0.000;0.000;2024-03-08T08:22:41;21.00;35.00
28959;DHT22;16066;0.000;0.000;2024-03-08T08:25:09;21.00;34.80
28959;DHT22;16066;0.000;0.000;2024-03-08T08:27:38;21.00;34.40
28959;DHT22;16066;0.000;0.000;2024-03-08T08:30:05;21.00;33.90
28959;DHT22;16066;0.000;0.000;2024-03-08T08:32:36;20.90;33.60
28959;DHT22;16066;0.000;0.000;2024-03-08T08:35:06;20.90;33.30
28959;DHT22;16066;0.000;0.000;2024-03-08T08:37:33;20.80;33.20
28959;DHT22;16066;0.000;0.000;2024-03-08T08:40:01;20.80;33.00
28959;DHT22;16066;0.000;0.000;2024-03-08T08:42:34;20.80;33.20
28959;DHT22;16066;0.000;0.000;2024-03-08T08:45:00;20.80;33.30
28959;DHT22;16066;0.000;0.000;2024-03-08T08:47:26;20.80;33.30
28959;DHT22;16066;0.000;0.000;2024-03-08T08:49:52;20.80;33.20
28959;DHT22;16066;0.000;0.000;2024-03-08T08:52:19;20.70;33.00
28959;DHT22;16066;0.000;0.000;2024-03-08T08:54:45;20.70;32.70
28959;DHT22;16066;0.000;0.000;2024-03-08T08:57:10;20.70;32.80
28959;DHT22;16066;0.000;0.000;2024-03-08T08:59:36;20.70;32.80
28959;DHT22;16066;0.000;0.000;2024-03-08T09:02:02;20.70;32.80
28959;DHT22;16066;0.000;0.000;2024-03-08T09:04:31;20.60;32.50
28959;DHT22;16066;0.000;0.000;2024-03-08T09:06:57;20.60;32.10
28959;DHT22;16066;0.000;0.000;2024-03-08T09:09:23;20.60;33.00
28959;DHT22;16066;0.000;0.000;2024-03-08T09:11:48;20.60;32.70
28959;DHT22;16066;0.000;0.000;2024-03-08T09:14:15;20.60;32.60
28959;DHT22;16066;0.000;0.000;2024-03-08T09:16:40;20.50;32.50
28959;DHT22;16066;0.000;0.000;2024-03-08T09:19:06;20.50;32.50
28959;DHT22;16066;0.000;0.000;2024-03-08T09:21:32;20.50;32.30
28959;DHT22;16066;0.000;0.000;2024-03-08T09:23:58;20.50;32.10
28959;DHT22;16066;0.000;0.000;2024-03-08T09:26:24;20.50;32.30
28959;DHT22;16066;0.000;0.000;2024-03-08T09:28:49;20.50;32.20
28959;DHT22;16066;0.000;0.000;2024-03-08T09:31:15;20.50;31.90
28959;DHT22;16066;0.000;0.000;2024-03-08T09:33:42;20.40;32.20
28959;DHT22;16066;0.000;0.000;2024-03-08T09:36:07;20.40;31.70
28959;DHT22;16066;0.000;0.000;2024-03-08T09:38:33;20.40;31.70
28959;DHT22;16066;0.000;0.000;2024-03-08T09:41:02;20.40;31.70
28959;DHT22;16066;0.000;0.000;2024-03-08T09:43:28;20.40;31.60
28959;DHT22;16066;0.000;0.000;2024-03-08T09:45:55;20.40;31.50
28959;DHT22;16066;0.000;0.000;2024-03-08T09:48:21;20.40;31.40
28959;DHT22;16066;0.000;0.000;2024-03-08T09:50:47;20.40;31.00
28959;DHT22;16066;0.000;0.000;2024-03-08T09:53:13;20.40;31.10
28959;DHT22;16066;0.000;0.000;2024-03-08T09:55:39;20.30;31.10
28959;DHT22;16066;0.000;0.000;2024-03-08T09:58:15;20.40;31.30
28959;DHT22;16066;0.000;0.000;2024-03-08T10:00:47;20.30;31.50
28959;DHT22;16066;0.000;0.000;2024-03-08T10:03:13;20.30;31.40
28959;DHT22;16066;0.000;0.000;2024-03-08T10:05:40;20.30;31.30
28959;DHT22;16066;0.000;0.000;2024-03-08T10:08:06;20.30;31.20
28959;DHT22;16066;0.000;0.000;2024-03-08T10:10:34;20.30;30.80
28959;DHT22;16066;0.000;0.000;2024-03-08T10:13:00;20.30;31.00
28959;DHT22;16066;0.000;0.000;2024-03-08T10:15:27;20.30;30.70
28959;DHT22;16066;0.000;0.000;2024-03-08T10:17:56;20.30;30.80
28959;DHT22;16066;0.000;0.000;2024-03-08T10:20:21;20.30;30.90
28959;DHT22;16066;0.000;0.000;2024-03-08T10:22:49;20.30;30.80
28959;DHT22;16066;0.000;0.000;2024-03-08T10:25:15;20.30;30.60
28959;DHT22;16066;0.000;0.000;2024-03-08T10:27:40;20.30;30.30
28959;DHT22;16066;0.000;0.000;2024-03-08T10:30:14;20.30;30.60
28959;DHT22;16066;0.000;0.000;2024-03-08T10:32:40;20.30;30.80
28959;DHT22;16066;0.000;0.000;2024-03-08T10:35:07;20.40;31.20
28959;DHT22;16066;0.000;0.000;2024-03-08T10:37:45;20.40;31.20
28959;DHT22;16066;0.000;0.000;2024-03-08T10:40:16;20.40;31.10
28959;DHT22;16066;0.000;0.000;2024-03-08T10:43:15;20.40;30.70
28959;DHT22;16066;0.000;0.000;2024-03-08T10:45:44;20.40;30.40
28959;DHT22;16066;0.000;0.000;2024-03-08T10:48:31;20.40;30.70
28959;DHT22;16066;0.000;0.000;2024-03-08T10:50:57;20.40;30.40
28959;DHT22;16066;0.000;0.000;2024-03-08T10:53:26;20.40;30.80
28959;DHT22;16066;0.000;0.000;2024-03-08T10:55:53;20.40;30.90
28959;DHT22;16066;0.000;0.000;2024-03-08T10:58:23;20.40;30.50
28959;DHT22;16066;0.000;0.000;2024-03-08T11:00:53;20.40;30.30
28959;DHT22;16066;0.000;0.000;2024-03-08T11:03:45;20.40;30.50
28959;DHT22;16066;0.000;0.000;2024-03-08T11:06:18;20.40;30.80
28959;DHT22;16066;0.000;0.000;2024-03-08T11:08:48;20.40;30.70
28959;DHT22;16066;0.000;0.000;2024-03-08T11:11:25;20.50;30.80
28959;DHT22;16066;0.000;0.000;2024-03-08T11:13:58;20.50;30.30
28959;DHT22;16066;0.000;0.000;2024-03-08T11:18:57;20.50;30.40
28959;DHT22;16066;0.000;0.000;2024-03-08T11:21:25;20.50;30.40
28959;DHT22;16066;0.000;0.000;2024-03-08T11:24:07;20.50;30.50
28959;DHT22;16066;0.000;0.000;2024-03-08T11:26:33;20.50;30.80
28959;DHT22;16066;0.000;0.000;2024-03-08T11:32:15;20.50;30.60
28959;DHT22;16066;0.000;0.000;2024-03-08T11:34:50;20.50;30.70
28959;DHT22;16066;0.000;0.000;2024-03-08T11:37:20;20.60;30.50
28959;DHT22;16066;0.000;0.000;2024-03-08T11:39:51;20.60;30.60
28959;DHT22;16066;0.000;0.000;2024-03-08T11:42:18;20.60;30.60
28959;DHT22;16066;0.000;0.000;2024-03-08T11:44:45;20.60;31.00
28959;DHT22;16066;0.000;0.000;2024-03-08T11:47:11;20.70;31.70
28959;DHT22;16066;0.000;0.000;2024-03-08T11:49:37;20.70;30.90
28959;DHT22;16066;0.000;0.000;2024-03-08T11:52:04;20.80;31.00
28959;DHT22;16066;0.000;0.000;2024-03-08T11:54:30;20.80;30.60
28959;DHT22;16066;0.000;0.000;2024-03-08T11:56:56;20.80;30.60
28959;DHT22;16066;0.000;0.000;2024-03-08T11:59:28;20.80;31.30
28959;DHT22;16066;0.000;0.000;2024-03-08T12:02:05;20.80;31.00
28959;DHT22;16066;0.000;0.000;2024-03-08T12:04:31;20.90;31.40
28959;DHT22;16066;0.000;0.000;2024-03-08T12:06:59;20.90;31.50
28959;DHT22;16066;0.000;0.000;2024-03-08T12:09:30;21.00;31.40
28959;DHT22;16066;0.000;0.000;2024-03-08T12:11:58;21.00;31.60
28959;DHT22;16066;0.000;0.000;2024-03-08T12:14:24;21.00;30.90
28959;DHT22;16066;0.000;0.000;2024-03-08T12:16:51;21.10;31.20
28959;DHT22;16066;0.000;0.000;2024-03-08T12:19:16;21.10;31.00
28959;DHT22;16066;0.000;0.000;2024-03-08T12:21:42;21.10;31.30
28959;DHT22;16066;0.000;0.000;2024-03-08T12:24:17;21.20;31.20
28959;DHT22;16066;0.000;0.000;2024-03-08T12:26:47;21.30;31.60
28959;DHT22;16066;0.000;0.000;2024-03-08T12:29:20;21.40;31.40
28959;DHT22;16066;0.000;0.000;2024-03-08T12:31:50;21.60;31.50
28959;DHT22;16066;0.000;0.000;2024-03-08T12:34:16;21.80;31.40
28959;DHT22;16066;0.000;0.000;2024-03-08T12:36:46;22.00;31.30
28959;DHT22;16066;0.000;0.000;2024-03-08T12:39:16;22.20;31.20
28959;DHT22;16066;0.000;0.000;2024-03-08T12:41:42;22.50;31.30
28959;DHT22;16066;0.000;0.000;2024-03-08T12:44:09;22.70;31.00
28959;DHT22;16066;0.000;0.000;2024-03-08T12:46:37;23.00;30.80
28959;DHT22;16066;0.000;0.000;2024-03-08T12:49:07;23.30;30.50
28959;DHT22;16066;0.000;0.000;2024-03-08T12:51:33;23.60;30.20
28959;DHT22;16066;0.000;0.000;2024-03-08T12:53:59;23.90;30.00
28959;DHT22;16066;0.000;0.000;2024-03-08T12:56:30;24.10;29.90
28959;DHT22;16066;0.000;0.000;2024-03-08T12:58:58;24.30;29.80
28959;DHT22;16066;0.000;0.000;2024-03-08T13:01:23;24.50;29.70
28959;DHT22;16066;0.000;0.000;2024-03-08T13:03:49;24.60;29.50
28959;DHT22;16066;0.000;0.000;2024-03-08T13:06:18;24.80;29.50
28959;DHT22;16066;0.000;0.000;2024-03-08T13:08:45;24.90;29.50
28959;DHT22;16066;0.000;0.000;2024-03-08T13:11:10;25.00;29.40
28959;DHT22;16066;0.000;0.000;2024-03-08T13:13:43;25.10;29.40
28959;DHT22;16066;0.000;0.000;2024-03-08T13:16:10;25.10;29.30
28959;DHT22;16066;0.000;0.000;2024-03-08T13:18:36;25.20;29.40
28959;DHT22;16066;0.000;0.000;2024-03-08T13:21:02;25.20;29.40
28959;DHT22;16066;0.000;0.000;2024-03-08T13:23:32;25.20;29.40
28959;DHT22;16066;0.000;0.000;2024-03-08T13:25:59;25.30;29.30
28959;DHT22;16066;0.000;0.000;2024-03-08T13:28:24;25.30;29.30
28959;DHT22;16066;0.000;0.000;2024-03-08T13:30:55;25.30;29.40
28959;DHT22;16066;0.000;0.000;2024-03-08T13:33:23;25.30;29.60
28959;DHT22;16066;0.000;0.000;2024-03-08T13:35:49;25.20;29.60
28959;DHT22;16066;0.000;0.000;2024-03-08T13:38:16;25.10;29.60
28959;DHT22;16066;0.000;0.000;2024-03-08T13:40:44;25.10;29.80
28959;DHT22;16066;0.000;0.000;2024-03-08T13:43:10;25.00;30.10
28959;DHT22;16066;0.000;0.000;2024-03-08T13:45:36;25.00;30.00
28959;DHT22;16066;0.000;0.000;2024-03-08T13:48:04;24.90;30.00
28959;DHT22;16066;0.000;0.000;2024-03-08T13:50:38;24.90;30.20
28959;DHT22;16066;0.000;0.000;2024-03-08T13:53:04;24.80;30.30
28959;DHT22;16066;0.000;0.000;2024-03-08T13:55:29;24.80;30.40
28959;DHT22;16066;0.000;0.000;2024-03-08T13:57:56;24.80;30.50
28959;DHT22;16066;0.000;0.000;2024-03-08T14:00:22;24.60;31.00
28959;DHT22;16066;0.000;0.000;2024-03-08T14:02:50;24.60;30.90
28959;DHT22;16066;0.000;0.000;2024-03-08T14:05:15;24.50;31.10
28959;DHT22;16066;0.000;0.000;2024-03-08T14:07:41;24.50;31.10
28959;DHT22;16066;0.000;0.000;2024-03-08T14:10:07;24.50;31.10
28959;DHT22;16066;0.000;0.000;2024-03-08T14:12:35;24.50;31.20
28959;DHT22;16066;0.000;0.000;2024-03-08T14:15:01;24.50;31.40
28959;DHT22;16066;0.000;0.000;2024-03-08T14:17:26;24.50;31.40
28959;DHT22;16066;0.000;0.000;2024-03-08T14:19:53;24.50;31.60
28959;DHT22;16066;0.000;0.000;2024-03-08T14:22:20;24.40;31.50
28959;DHT22;16066;0.000;0.000;2024-03-08T14:24:45;24.50;31.80
28959;DHT22;16066;0.000;0.000;2024-03-08T14:27:11;24.50;31.70
28959;DHT22;16066;0.000;0.000;2024-03-08T14:29:37;24.50;31.70
28959;DHT22;16066;0.000;0.000;2024-03-08T14:32:04;24.50;31.70
28959;DHT22;16066;0.000;0.000;2024-03-08T14:34:34;24.60;31.80
28959;DHT22;16066;0.000;0.000;2024-03-08T14:37:00;24.60;31.80
28959;DHT22;16066;0.000;0.000;2024-03-08T14:39:26;24.50;31.80
28959;DHT22;16066;0.000;0.000;2024-03-08T14:41:54;24.60;31.90
28959;DHT22;16066;0.000;0.000;2024-03-08T14:44:21;24.70;32.50
28959;DHT22;16066;0.000;0.000;2024-03-08T14:46:47;24.70;31.80
28959;DHT22;16066;0.000;0.000;2024-03-08T14:49:14;24.70;31.80
28959;DHT22;16066;0.000;0.000;2024-03-08T14:51:39;24.70;31.90
28959;DHT22;16066;0.000;0.000;2024-03-08T14:54:05;24.60;31.20
28959;DHT22;16066;0.000;0.000;2024-03-08T14:56:32;24.60;31.00
28959;DHT22;16066;0.000;0.000;2024-03-08T14:58:58;24.60;31.50
28959;DHT22;16066;0.000;0.000;2024-03-08T15:01:25;24.50;31.80
28959;DHT22;16066;0.000;0.000;2024-03-08T15:03:55;24.50;31.90
28959;DHT22;16066;0.000;0.000;2024-03-08T15:06:21;24.50;32.00
28959;DHT22;16066;0.000;0.000;2024-03-08T15:08:47;24.40;32.10
28959;DHT22;16066;0.000;0.000;2024-03-08T15:11:13;24.40;32.30
28959;DHT22;16066;0.000;0.000;2024-03-08T15:13:49;24.30;32.30
28959;DHT22;16066;0.000;0.000;2024-03-08T15:16:18;24.30;33.10
28959;DHT22;16066;0.000;0.000;2024-03-08T15:18:44;24.20;32.60
28959;DHT22;16066;0.000;0.000;2024-03-08T15:21:14;24.20;32.80
28959;DHT22;16066;0.000;0.000;2024-03-08T15:23:44;24.20;32.90
28959;DHT22;16066;0.000;0.000;2024-03-08T15:26:13;24.10;33.00
28959;DHT22;16066;0.000;0.000;2024-03-08T15:28:38;24.00;33.00
28959;DHT22;16066;0.000;0.000;2024-03-08T15:31:05;23.90;33.10
28959;DHT22;16066;0.000;0.000;2024-03-08T15:33:35;23.90;33.30
28959;DHT22;16066;0.000;0.000;2024-03-08T15:36:07;23.90;33.50
28959;DHT22;16066;0.000;0.000;2024-03-08T15:38:38;23.80;33.50
28959;DHT22;16066;0.000;0.000;2024-03-08T15:41:04;23.70;33.60
28959;DHT22;16066;0.000;0.000;2024-03-08T15:43:35;23.60;33.00
28959;DHT22;16066;0.000;0.000;2024-03-08T15:46:02;23.50;32.90
28959;DHT22;16066;0.000;0.000;2024-03-08T15:48:32;23.50;33.10
28959;DHT22;16066;0.000;0.000;2024-03-08T15:50:59;23.40;33.40
28959;DHT22;16066;0.000;0.000;2024-03-08T15:53:28;23.30;33.60
28959;DHT22;16066;0.000;0.000;2024-03-08T15:55:56;23.30;33.80
28959;DHT22;16066;0.000;0.000;2024-03-08T15:58:23;23.20;33.90
28959;DHT22;16066;0.000;0.000;2024-03-08T16:00:48;23.10;34.00
28959;DHT22;16066;0.000;0.000;2024-03-08T16:03:14;23.10;34.10
28959;DHT22;16066;0.000;0.000;2024-03-08T16:05:44;23.00;34.30
28959;DHT22;16066;0.000;0.000;2024-03-08T16:08:16;22.90;34.90
28959;DHT22;16066;0.000;0.000;2024-03-08T16:10:47;22.90;34.70
28959;DHT22;16066;0.000;0.000;2024-03-08T16:13:23;22.90;34.70
28959;DHT22;16066;0.000;0.000;2024-03-08T16:15:51;22.80;34.90
28959;DHT22;16066;0.000;0.000;2024-03-08T16:18:17;22.80;34.90
28959;DHT22;16066;0.000;0.000;2024-03-08T16:20:50;22.80;35.00
28959;DHT22;16066;0.000;0.000;2024-03-08T16:23:16;22.70;35.10
28959;DHT22;16066;0.000;0.000;2024-03-08T16:25:42;22.70;35.20
28959;DHT22;16066;0.000;0.000;2024-03-08T16:28:08;22.60;35.20
28959;DHT22;16066;0.000;0.000;2024-03-08T16:30:44;22.60;35.90
28959;DHT22;16066;0.000;0.000;2024-03-08T16:33:19;22.50;35.40
28959;DHT22;16066;0.000;0.000;2024-03-08T16:35:45;22.50;35.50
28959;DHT22;16066;0.000;0.000;2024-03-08T16:38:12;22.40;35.60
28959;DHT22;16066;0.000;0.000;2024-03-08T16:40:45;22.40;35.90
28959;DHT22;16066;0.000;0.000;2024-03-08T16:43:12;22.30;35.80
28959;DHT22;16066;0.000;0.000;2024-03-08T16:45:40;22.30;35.90
28959;DHT22;16066;0.000;0.000;2024-03-08T16:48:06;22.30;36.00
28959;DHT22;16066;0.000;0.000;2024-03-08T16:50:32;22.20;36.20
28959;DHT22;16066;0.000;0.000;2024-03-08T16:53:02;22.20;36.10
28959;DHT22;16066;0.000;0.000;2024-03-08T16:55:31;22.10;36.10
28959;DHT22;16066;0.000;0.000;2024-03-08T16:57:58;22.10;36.20
28959;DHT22;16066;0.000;0.000;2024-03-08T17:00:24;22.10;36.20
28959;DHT22;16066;0.000;0.000;2024-03-08T17:02:58;22.00;36.30
28959;DHT22;16066;0.000;0.000;2024-03-08T17:05:24;22.00;36.40
28959;DHT22;16066;0.000;0.000;2024-03-08T17:07:58;22.00;36.50
28959;DHT22;16066;0.000;0.000;2024-03-08T17:10:29;21.90;36.50
28959;DHT22;16066;0.000;0.000;2024-03-08T17:12:56;21.90;36.60
28959;DHT22;16066;0.000;0.000;2024-03-08T17:15:29;21.90;36.60
28959;DHT22;16066;0.000;0.000;2024-03-08T17:18:00;21.80;36.60
28959;DHT22;16066;0.000;0.000;2024-03-08T17:20:30;21.80;36.70
28959;DHT22;16066;0.000;0.000;2024-03-08T17:22:57;21.80;36.80
28959;DHT22;16066;0.000;0.000;2024-03-08T17:25:24;21.70;36.70
28959;DHT22;16066;0.000;0.000;2024-03-08T17:27:51;21.70;36.70
28959;DHT22;16066;0.000;0.000;2024-03-08T17:30:21;21.70;36.80
28959;DHT22;16066;0.000;0.000;2024-03-08T17:33:02;21.70;36.90
28959;DHT22;16066;0.000;0.000;2024-03-08T17:35:34;21.60;37.00
28959;DHT22;16066;0.000;0.000;2024-03-08T17:38:01;21.60;37.60
28959;DHT22;16066;0.000;0.000;2024-03-08T17:40:33;21.60;37.00
28959;DHT22;16066;0.000;0.000;2024-03-08T17:43:03;21.60;37.40
28959;DHT22;16066;0.000;0.000;2024-03-08T17:45:33;21.60;37.00
28959;DHT22;16066;0.000;0.000;2024-03-08T17:48:01;21.60;36.90
28959;DHT22;16066;0.000;0.000;2024-03-08T17:50:27;21.60;37.00
28959;DHT22;16066;0.000;0.000;2024-03-08T17:52:53;21.60;36.90
28959;DHT22;16066;0.000;0.000;2024-03-08T17:55:19;21.60;37.00
28959;DHT22;16066;0.000;0.000;2024-03-08T17:57:46;21.60;37.10
28959;DHT22;16066;0.000;0.000;2024-03-08T18:00:17;21.60;37.20
28959;DHT22;16066;0.000;0.000;2024-03-08T18:02:45;21.60;37.70
28959;DHT22;16066;0.000;0.000;2024-03-08T18:05:11;21.60;37.40
28959;DHT22;16066;0.000;0.000;2024-03-08T18:07:40;21.60;37.60
28959;DHT22;16066;0.000;0.000;2024-03-08T18:10:07;21.50;37.50
28959;DHT22;16066;0.000;0.000;2024-03-08T18:12:33;21.60;37.50
28959;DHT22;16066;0.000;0.000;2024-03-08T18:14:58;21.60;37.50
28959;DHT22;16066;0.000;0.000;2024-03-08T18:17:24;21.50;37.50
28959;DHT22;16066;0.000;0.000;2024-03-08T18:19:49;21.50;37.50
28959;DHT22;16066;0.000;0.000;2024-03-08T18:22:16;21.50;37.40
28959;DHT22;16066;0.000;0.000;2024-03-08T18:24:42;21.50;37.40
28959;DHT22;16066;0.000;0.000;2024-03-08T18:27:07;21.50;37.30
28959;DHT22;16066;0.000;0.000;2024-03-08T18:29:34;21.50;37.20
28959;DHT22;16066;0.000;0.000;2024-03-08T18:32:00;21.50;37.30
28959;DHT22;16066;0.000;0.000;2024-03-08T18:34:27;21.50;37.20
28959;DHT22;16066;0.000;0.000;2024-03-08T18:36:53;21.50;37.20
28959;DHT22;16066;0.000;0.000;2024-03-08T18:39:18;21.50;37.20
28959;DHT22;16066;0.000;0.000;2024-03-08T18:41:46;21.50;37.30
28959;DHT22;16066;0.000;0.000;2024-03-08T18:44:11;21.50;37.20
28959;DHT22;16066;0.000;0.000;2024-03-08T18:46:38;21.50;37.20
28959;DHT22;16066;0.000;0.000;2024-03-08T18:49:06;21.60;37.30
28959;DHT22;16066;0.000;0.000;2024-03-08T18:51:31;21.60;37.40
28959;DHT22;16066;0.000;0.000;2024-03-08T18:53:57;21.60;37.40
28959;DHT22;16066;0.000;0.000;2024-03-08T18:56:22;21.60;37.30
28959;DHT22;16066;0.000;0.000;2024-03-08T18:58:48;21.60;37.40
28959;DHT22;16066;0.000;0.000;2024-03-08T19:01:14;21.60;37.30
28959;DHT22;16066;0.000;0.000;2024-03-08T19:03:43;21.60;37.30
28959;DHT22;16066;0.000;0.000;2024-03-08T19:06:11;21.60;37.30
28959;DHT22;16066;0.000;0.000;2024-03-08T19:08:36;21.60;37.30
28959;DHT22;16066;0.000;0.000;2024-03-08T19:11:02;21.60;37.30
28959;DHT22;16066;0.000;0.000;2024-03-08T19:13:29;21.60;37.30
28959;DHT22;16066;0.000;0.000;2024-03-08T19:15:56;21.60;37.30
28959;DHT22;16066;0.000;0.000;2024-03-08T19:18:21;21.60;37.30
28959;DHT22;16066;0.000;0.000;2024-03-08T19:20:47;21.60;37.30
28959;DHT22;16066;0.000;0.000;2024-03-08T19:23:13;21.60;37.20
28959;DHT22;16066;0.000;0.000;2024-03-08T19:25:39;21.60;37.30
28959;DHT22;16066;0.000;0.000;2024-03-08T19:28:11;21.60;37.30
28959;DHT22;16066;0.000;0.000;2024-03-08T19:30:42;21.60;37.20
28959;DHT22;16066;0.000;0.000;2024-03-08T19:33:07;21.60;37.20
28959;DHT22;16066;0.000;0.000;2024-03-08T19:35:33;21.60;37.20
28959;DHT22;16066;0.000;0.000;2024-03-08T19:38:01;21.60;37.20
28959;DHT22;16066;0.000;0.000;2024-03-08T19:40:28;21.60;37.20
28959;DHT22;16066;0.000;0.000;2024-03-08T19:42:58;21.60;37.30
28959;DHT22;16066;0.000;0.000;2024-03-08T19:45:25;21.60;37.30
28959;DHT22;16066;0.000;0.000;2024-03-08T19:47:52;21.60;37.20
28959;DHT22;16066;0.000;0.000;2024-03-08T19:50:18;21.60;37.30
28959;DHT22;16066;0.000;0.000;2024-03-08T19:52:47;21.60;37.30
28959;DHT22;16066;0.000;0.000;2024-03-08T19:55:14;21.60;37.20
28959;DHT22;16066;0.000;0.000;2024-03-08T19:57:41;21.60;37.20
28959;DHT22;16066;0.000;0.000;2024-03-08T20:00:12;21.60;37.20
28959;DHT22;16066;0.000;0.000;2024-03-08T20:02:45;21.60;37.10
28959;DHT22;16066;0.000;0.000;2024-03-08T20:05:11;21.60;37.10
28959;DHT22;16066;0.000;0.000;2024-03-08T20:07:39;21.60;37.10
28959;DHT22;16066;0.000;0.000;2024-03-08T20:10:05;21.60;37.10
28959;DHT22;16066;0.000;0.000;2024-03-08T20:12:32;21.60;37.10
28959;DHT22;16066;0.000;0.000;2024-03-08T20:14:58;21.60;37.10
28959;DHT22;16066;0.000;0.000;2024-03-08T20:17:24;21.60;37.10
28959;DHT22;16066;0.000;0.000;2024-03-08T20:19:51;21.60;37.10
28959;DHT22;16066;0.000;0.000;2024-03-08T20:22:16;21.60;37.10
28959;DHT22;16066;0.000;0.000;2024-03-08T20:24:44;21.60;37.10
28959;DHT22;16066;0.000;0.000;2024-03-08T20:27:09;21.60;37.10
28959;DHT22;16066;0.000;0.000;2024-03-08T20:29:36;21.60;37.10
28959;DHT22;16066;0.000;0.000;2024-03-08T20:32:01;21.60;37.20
28959;DHT22;16066;0.000;0.000;2024-03-08T20:34:27;21.60;37.00
28959;DHT22;16066;0.000;0.000;2024-03-08T20:36:54;21.60;37.00
28959;DHT22;16066;0.000;0.000;2024-03-08T20:39:19;21.60;36.90
28959;DHT22;16066;0.000;0.000;2024-03-08T20:41:46;21.60;37.10
28959;DHT22;16066;0.000;0.000;2024-03-08T20:44:12;21.60;37.10
28959;DHT22;16066;0.000;0.000;2024-03-08T20:46:41;21.60;37.10
28959;DHT22;16066;0.000;0.000;2024-03-08T20:49:06;21.60;37.10
28959;DHT22;16066;0.000;0.000;2024-03-08T20:51:33;21.60;37.10
28959;DHT22;16066;0.000;0.000;2024-03-08T20:54:01;21.60;37.20
28959;DHT22;16066;0.000;0.000;2024-03-08T20:56:30;21.60;37.20
28959;DHT22;16066;0.000;0.000;2024-03-08T20:58:56;21.60;37.10
28959;DHT22;16066;0.000;0.000;2024-03-08T21:01:21;21.60;37.00
28959;DHT22;16066;0.000;0.000;2024-03-08T21:03:51;21.60;36.80
28959;DHT22;16066;0.000;0.000;2024-03-08T21:06:17;21.50;36.70
28959;DHT22;16066;0.000;0.000;2024-03-08T21:08:43;21.50;37.10
28959;DHT22;16066;0.000;0.000;2024-03-08T21:11:09;21.50;37.00
28959;DHT22;16066;0.000;0.000;2024-03-08T21:13:35;21.50;37.10
28959;DHT22;16066;0.000;0.000;2024-03-08T21:16:01;21.60;37.10
28959;DHT22;16066;0.000;0.000;2024-03-08T21:18:27;21.60;37.20
28959;DHT22;16066;0.000;0.000;2024-03-08T21:20:54;21.60;37.10
28959;DHT22;16066;0.000;0.000;2024-03-08T21:23:19;21.60;37.00
28959;DHT22;16066;0.000;0.000;2024-03-08T21:25:45;21.60;37.00
28959;DHT22;16066;0.000;0.000;2024-03-08T21:28:11;21.60;37.00
28959;DHT22;16066;0.000;0.000;2024-03-08T21:30:37;21.60;37.00
28959;DHT22;16066;0.000;0.000;2024-03-08T21:33:02;21.60;37.00
28959;DHT22;16066;0.000;0.000;2024-03-08T21:35:31;21.60;37.00
28959;DHT22;16066;0.000;0.000;2024-03-08T21:37:58;21.60;37.00
28959;DHT22;16066;0.000;0.000;2024-03-08T21:40:25;21.60;37.20
28959;DHT22;16066;0.000;0.000;2024-03-08T21:42:56;21.60;37.00
28959;DHT22;16066;0.000;0.000;2024-03-08T21:45:22;21.60;37.00
28959;DHT22;16066;0.000;0.000;2024-03-08T21:47:52;21.60;37.00
28959;DHT22;16066;0.000;0.000;2024-03-08T21:50:19;21.60;37.00
28959;DHT22;16066;0.000;0.000;2024-03-08T21:52:45;21.60;36.90